sensor_id;sensor_type;location;lat;lon;timestamp;P1;durP1;ratioP1;P2;durP2;ratioP2
8488;SDS011;4281;45.772;12.852;2022-11-15T00:01:07;14.53;;;13.03;;
8488;SDS011;4281;45.772;12.852;2022-11-15T00:03:35;15.23;;;13.73;;
8488;SDS011;4281;45.772;12.852;2022-11-15T00:06:03;14.13;;;12.73;;
8488;SDS011;4281;45.772;12.852;2022-11-15T00:08:31;14.10;;;12.80;;
8488;SDS011;4281;45.772;12.852;2022-11-15T00:11:00;14.63;;;13.27;;
8488;SDS011;4281;45.772;12.852;2022-11-15T00:13:29;13.23;;;11.97;;
8488;SDS011;4281;45.772;12.852;2022-11-15T00:15:59;13.53;;;12.20;;
8488;SDS011;4281;45.772;12.852;2022-11-15T00:18:27;13.13;;;11.93;;
8488;SDS011;4281;45.772;12.852;2022-11-15T00:20:56;13.17;;;11.77;;
8488;SDS011;4281;45.772;12.852;2022-11-15T00:23:29;13.37;;;12.17;;
8488;SDS011;4281;45.772;12.852;2022-11-15T00:25:57;12.80;;;11.60;;
8488;SDS011;4281;45.772;12.852;2022-11-15T00:28:25;13.07;;;11.80;;
8488;SDS011;4281;45.772;12.852;2022-11-15T00:30:53;14.70;;;13.30;;
8488;SDS011;4281;45.772;12.852;2022-11-15T00:33:22;14.40;;;13.00;;
8488;SDS011;4281;45.772;12.852;2022-11-15T00:35:50;14.27;;;12.87;;
8488;SDS011;4281;45.772;12.852;2022-11-15T00:38:17;14.40;;;13.00;;
8488;SDS011;4281;45.772;12.852;2022-11-15T00:40:45;14.87;;;13.43;;
8488;SDS011;4281;45.772;12.852;2022-11-15T00:43:13;14.00;;;12.57;;
8488;SDS011;4281;45.772;12.852;2022-11-15T00:45:41;15.93;;;14.10;;
8488;SDS011;4281;45.772;12.852;2022-11-15T00:48:09;14.70;;;13.23;;
8488;SDS011;4281;45.772;12.852;2022-11-15T00:50:38;14.63;;;13.13;;
8488;SDS011;4281;45.772;12.852;2022-11-15T00:53:06;15.07;;;13.67;;
8488;SDS011;4281;45.772;12.852;2022-11-15T00:55:33;15.47;;;13.97;;
8488;SDS011;4281;45.772;12.852;2022-11-15T00:58:01;15.80;;;14.10;;
8488;SDS011;4281;45.772;12.852;2022-11-15T01:00:29;15.03;;;13.37;;
8488;SDS011;4281;45.772;12.852;2022-11-15T01:02:57;15.60;;;14.10;;
8488;SDS011;4281;45.772;12.852;2022-11-15T01:05:24;14.70;;;13.27;;
8488;SDS011;4281;45.772;12.852;2022-11-15T01:07:54;14.43;;;13.03;;
8488;SDS011;4281;45.772;12.852;2022-11-15T01:10:22;15.17;;;13.57;;
8488;SDS011;4281;45.772;12.852;2022-11-15T01:12:52;14.20;;;12.80;;
8488;SDS011;4281;45.772;12.852;2022-11-15T01:15:19;13.53;;;12.20;;
8488;SDS011;4281;45.772;12.852;2022-11-15T01:17:47;14.33;;;12.90;;
8488;SDS011;4281;45.772;12.852;2022-11-15T01:20:15;15.17;;;13.57;;
8488;SDS011;4281;45.772;12.852;2022-11-15T01:22:42;15.50;;;13.77;;
8488;SDS011;4281;45.772;12.852;2022-11-15T01:25:12;15.70;;;14.10;;
8488;SDS011;4281;45.772;12.852;2022-11-15T01:27:40;15.17;;;13.70;;
8488;SDS011;4281;45.772;12.852;2022-11-15T01:30:08;15.33;;;13.83;;
8488;SDS011;4281;45.772;12.852;2022-11-15T01:32:36;16.33;;;14.83;;
8488;SDS011;4281;45.772;12.852;2022-11-15T01:35:04;16.03;;;14.43;;
8488;SDS011;4281;45.772;12.852;2022-11-15T01:37:32;16.37;;;14.67;;
8488;SDS011;4281;45.772;12.852;2022-11-15T01:39:59;14.93;;;13.47;;
8488;SDS011;4281;45.772;12.852;2022-11-15T01:42:28;16.43;;;14.83;;
8488;SDS011;4281;45.772;12.852;2022-11-15T01:44:56;15.00;;;13.50;;
8488;SDS011;4281;45.772;12.852;2022-11-15T01:47:24;15.37;;;13.87;;
8488;SDS011;4281;45.772;12.852;2022-11-15T01:49:54;14.93;;;13.43;;
8488;SDS011;4281;45.772;12.852;2022-11-15T01:52:25;15.20;;;13.67;;
8488;SDS011;4281;45.772;12.852;2022-11-15T01:54:55;15.67;;;14.17;;
8488;SDS011;4281;45.772;12.852;2022-11-15T01:57:26;15.47;;;13.97;;
8488;SDS011;4281;45.772;12.852;2022-11-15T01:59:55;14.57;;;13.10;;
8488;SDS011;4281;45.772;12.852;2022-11-15T02:02:23;16.00;;;14.40;;
8488;SDS011;4281;45.772;12.852;2022-11-15T02:04:51;15.07;;;13.57;;
8488;SDS011;4281;45.772;12.852;2022-11-15T02:07:19;14.73;;;13.33;;
8488;SDS011;4281;45.772;12.852;2022-11-15T02:12:19;15.00;;;13.50;;
8488;SDS011;4281;45.772;12.852;2022-11-15T02:14:48;14.27;;;12.97;;
8488;SDS011;4281;45.772;12.852;2022-11-15T02:17:29;14.83;;;12.93;;
8488;SDS011;4281;45.772;12.852;2022-11-15T02:20:17;14.13;;;12.73;;
8488;SDS011;4281;45.772;12.852;2022-11-15T02:22:58;13.67;;;12.27;;
8488;SDS011;4281;45.772;12.852;2022-11-15T02:25:46;12.87;;;11.57;;
8488;SDS011;4281;45.772;12.852;2022-11-15T02:28:32;13.37;;;12.07;;
8488;SDS011;4281;45.772;12.852;2022-11-15T02:31:07;12.67;;;11.47;;
8488;SDS011;4281;45.772;12.852;2022-11-15T02:33:40;12.33;;;11.23;;
8488;SDS011;4281;45.772;12.852;2022-11-15T02:36:10;11.67;;;10.57;;
8488;SDS011;4281;45.772;12.852;2022-11-15T02:38:43;11.50;;;10.40;;
8488;SDS011;4281;45.772;12.852;2022-11-15T02:41:15;13.73;;;12.30;;
8488;SDS011;4281;45.772;12.852;2022-11-15T02:43:46;12.83;;;11.73;;
8488;SDS011;4281;45.772;12.852;2022-11-15T02:46:27;12.83;;;11.53;;
8488;SDS011;4281;45.772;12.852;2022-11-15T02:49:16;13.03;;;11.77;;
8488;SDS011;4281;45.772;12.852;2022-11-15T02:51:45;12.70;;;11.50;;
8488;SDS011;4281;45.772;12.852;2022-11-15T02:54:15;12.97;;;11.77;;
8488;SDS011;4281;45.772;12.852;2022-11-15T02:56:47;13.50;;;12.23;;
8488;SDS011;4281;45.772;12.852;2022-11-15T02:59:29;13.93;;;12.57;;
8488;SDS011;4281;45.772;12.852;2022-11-15T03:02:23;13.23;;;11.93;;
8488;SDS011;4281;45.772;12.852;2022-11-15T03:05:02;12.30;;;11.10;;
8488;SDS011;4281;45.772;12.852;2022-11-15T03:07:33;12.60;;;11.40;;
8488;SDS011;4281;45.772;12.852;2022-11-15T03:10:05;12.10;;;10.90;;
8488;SDS011;4281;45.772;12.852;2022-11-15T03:12:35;12.77;;;11.47;;
8488;SDS011;4281;45.772;12.852;2022-11-15T03:15:05;12.80;;;11.50;;
8488;SDS011;4281;45.772;12.852;2022-11-15T03:17:37;13.03;;;11.83;;
8488;SDS011;4281;45.772;12.852;2022-11-15T03:20:07;12.23;;;11.10;;
8488;SDS011;4281;45.772;12.852;2022-11-15T03:22:37;12.30;;;11.17;;
8488;SDS011;4281;45.772;12.852;2022-11-15T03:25:08;12.93;;;11.67;;
8488;SDS011;4281;45.772;12.852;2022-11-15T03:27:39;12.67;;;11.40;;
8488;SDS011;4281;45.772;12.852;2022-11-15T03:30:09;10.97;;;9.97;;
8488;SDS011;4281;45.772;12.852;2022-11-15T03:32:40;12.57;;;11.27;;
8488;SDS011;4281;45.772;12.852;2022-11-15T03:35:11;12.40;;;11.23;;
8488;SDS011;4281;45.772;12.852;2022-11-15T03:37:41;11.73;;;10.63;;
8488;SDS011;4281;45.772;12.852;2022-11-15T03:40:12;11.43;;;10.43;;
8488;SDS011;4281;45.772;12.852;2022-11-15T03:42:42;12.20;;;11.00;;
8488;SDS011;4281;45.772;12.852;2022-11-15T03:45:13;12.33;;;11.03;;
8488;SDS011;4281;45.772;12.852;2022-11-15T03:47:45;11.80;;;10.60;;
8488;SDS011;4281;45.772;12.852;2022-11-15T03:50:16;11.73;;;10.63;;
8488;SDS011;4281;45.772;12.852;2022-11-15T03:52:46;12.53;;;11.33;;
8488;SDS011;4281;45.772;12.852;2022-11-15T03:55:16;11.87;;;10.77;;
8488;SDS011;4281;45.772;12.852;2022-11-15T03:57:45;12.00;;;10.80;;
8488;SDS011;4281;45.772;12.852;2022-11-15T04:00:13;12.43;;;11.33;;
8488;SDS011;4281;45.772;12.852;2022-11-15T04:02:41;12.27;;;11.17;;
8488;SDS011;4281;45.772;12.852;2022-11-15T04:05:10;11.83;;;10.83;;
8488;SDS011;4281;45.772;12.852;2022-11-15T04:07:38;12.00;;;10.90;;
8488;SDS011;4281;45.772;12.852;2022-11-15T04:10:10;11.90;;;10.60;;
8488;SDS011;4281;45.772;12.852;2022-11-15T04:12:39;12.03;;;10.93;;
8488;SDS011;4281;45.772;12.852;2022-11-15T04:15:10;12.10;;;11.00;;
8488;SDS011;4281;45.772;12.852;2022-11-15T04:17:40;12.17;;;11.03;;
8488;SDS011;4281;45.772;12.852;2022-11-15T04:20:12;12.80;;;11.60;;
8488;SDS011;4281;45.772;12.852;2022-11-15T04:22:59;12.10;;;10.97;;
8488;SDS011;4281;45.772;12.852;2022-11-15T04:25:45;12.20;;;11.10;;
8488;SDS011;4281;45.772;12.852;2022-11-15T04:28:13;11.90;;;10.70;;
8488;SDS011;4281;45.772;12.852;2022-11-15T04:30:41;13.20;;;11.90;;
8488;SDS011;4281;45.772;12.852;2022-11-15T04:33:08;11.90;;;10.80;;
8488;SDS011;4281;45.772;12.852;2022-11-15T04:35:37;11.90;;;10.77;;
8488;SDS011;4281;45.772;12.852;2022-11-15T04:38:06;12.27;;;11.17;;
8488;SDS011;4281;45.772;12.852;2022-11-15T04:40:34;12.27;;;11.07;;
8488;SDS011;4281;45.772;12.852;2022-11-15T04:43:03;12.30;;;11.17;;
8488;SDS011;4281;45.772;12.852;2022-11-15T04:45:31;11.63;;;10.53;;
8488;SDS011;4281;45.772;12.852;2022-11-15T04:47:58;11.77;;;10.67;;
8488;SDS011;4281;45.772;12.852;2022-11-15T04:50:26;13.00;;;11.90;;
8488;SDS011;4281;45.772;12.852;2022-11-15T04:52:55;12.70;;;11.50;;
8488;SDS011;4281;45.772;12.852;2022-11-15T04:55:23;12.57;;;11.33;;
8488;SDS011;4281;45.772;12.852;2022-11-15T04:57:57;12.27;;;11.13;;
8488;SDS011;4281;45.772;12.852;2022-11-15T05:00:26;12.93;;;11.80;;
8488;SDS011;4281;45.772;12.852;2022-11-15T05:02:55;11.83;;;10.73;;
8488;SDS011;4281;45.772;12.852;2022-11-15T05:05:40;12.27;;;11.07;;
8488;SDS011;4281;45.772;12.852;2022-11-15T05:08:09;12.40;;;11.20;;
8488;SDS011;4281;45.772;12.852;2022-11-15T05:10:37;12.17;;;10.97;;
8488;SDS011;4281;45.772;12.852;2022-11-15T05:13:05;12.77;;;11.50;;
8488;SDS011;4281;45.772;12.852;2022-11-15T05:15:33;12.77;;;11.57;;
8488;SDS011;4281;45.772;12.852;2022-11-15T05:18:00;12.03;;;10.93;;
8488;SDS011;4281;45.772;12.852;2022-11-15T05:20:28;12.77;;;11.57;;
8488;SDS011;4281;45.772;12.852;2022-11-15T05:22:56;12.80;;;11.40;;
8488;SDS011;4281;45.772;12.852;2022-11-15T05:25:25;12.33;;;11.17;;
8488;SDS011;4281;45.772;12.852;2022-11-15T05:27:53;12.47;;;11.27;;
8488;SDS011;4281;45.772;12.852;2022-11-15T05:30:21;12.37;;;11.27;;
8488;SDS011;4281;45.772;12.852;2022-11-15T05:32:48;13.13;;;11.93;;
8488;SDS011;4281;45.772;12.852;2022-11-15T05:35:18;12.03;;;10.83;;
8488;SDS011;4281;45.772;12.852;2022-11-15T05:37:49;13.70;;;12.33;;
8488;SDS011;4281;45.772;12.852;2022-11-15T05:40:16;12.70;;;11.53;;
8488;SDS011;4281;45.772;12.852;2022-11-15T05:42:46;12.27;;;11.07;;
8488;SDS011;4281;45.772;12.852;2022-11-15T05:45:14;13.40;;;12.10;;
8488;SDS011;4281;45.772;12.852;2022-11-15T05:47:49;13.13;;;11.83;;
8488;SDS011;4281;45.772;12.852;2022-11-15T05:50:17;13.27;;;11.97;;
8488;SDS011;4281;45.772;12.852;2022-11-15T05:52:45;13.00;;;11.70;;
8488;SDS011;4281;45.772;12.852;2022-11-15T05:55:13;12.90;;;11.60;;
8488;SDS011;4281;45.772;12.852;2022-11-15T05:57:41;13.20;;;11.90;;
8488;SDS011;4281;45.772;12.852;2022-11-15T06:00:11;12.73;;;11.53;;
8488;SDS011;4281;45.772;12.852;2022-11-15T06:02:39;13.10;;;11.83;;
8488;SDS011;4281;45.772;12.852;2022-11-15T06:05:07;13.57;;;12.27;;
8488;SDS011;4281;45.772;12.852;2022-11-15T06:07:35;14.00;;;12.70;;
8488;SDS011;4281;45.772;12.852;2022-11-15T06:12:45;13.40;;;12.20;;
8488;SDS011;4281;45.772;12.852;2022-11-15T06:15:15;12.83;;;11.63;;
8488;SDS011;4281;45.772;12.852;2022-11-15T06:17:42;12.73;;;11.53;;
8488;SDS011;4281;45.772;12.852;2022-11-15T06:20:10;13.07;;;11.77;;
8488;SDS011;4281;45.772;12.852;2022-11-15T06:22:38;12.53;;;11.33;;
8488;SDS011;4281;45.772;12.852;2022-11-15T06:25:06;11.67;;;10.57;;
8488;SDS011;4281;45.772;12.852;2022-11-15T06:27:34;12.90;;;11.67;;
8488;SDS011;4281;45.772;12.852;2022-11-15T06:30:02;11.50;;;10.40;;
8488;SDS011;4281;45.772;12.852;2022-11-15T06:32:31;11.73;;;10.63;;
8488;SDS011;4281;45.772;12.852;2022-11-15T06:34:59;12.10;;;11.00;;
8488;SDS011;4281;45.772;12.852;2022-11-15T06:37:26;11.60;;;10.50;;
8488;SDS011;4281;45.772;12.852;2022-11-15T06:39:54;11.70;;;10.50;;
8488;SDS011;4281;45.772;12.852;2022-11-15T06:42:22;11.27;;;10.27;;
8488;SDS011;4281;45.772;12.852;2022-11-15T06:44:49;11.57;;;10.47;;
8488;SDS011;4281;45.772;12.852;2022-11-15T06:47:17;11.90;;;10.80;;
8488;SDS011;4281;45.772;12.852;2022-11-15T06:49:50;11.80;;;10.70;;
8488;SDS011;4281;45.772;12.852;2022-11-15T06:52:38;11.40;;;10.30;;
8488;SDS011;4281;45.772;12.852;2022-11-15T06:56:38;10.53;;;9.53;;
8488;SDS011;4281;45.772;12.852;2022-11-15T06:59:29;10.20;;;9.20;;
8488;SDS011;4281;45.772;12.852;2022-11-15T07:02:11;10.93;;;9.93;;
8488;SDS011;4281;45.772;12.852;2022-11-15T07:04:40;11.77;;;10.57;;
8488;SDS011;4281;45.772;12.852;2022-11-15T07:07:09;11.70;;;10.60;;
8488;SDS011;4281;45.772;12.852;2022-11-15T07:09:37;11.63;;;10.63;;
8488;SDS011;4281;45.772;12.852;2022-11-15T07:12:05;11.53;;;10.40;;
8488;SDS011;4281;45.772;12.852;2022-11-15T07:14:33;11.47;;;10.40;;
8488;SDS011;4281;45.772;12.852;2022-11-15T07:17:02;11.40;;;10.40;;
8488;SDS011;4281;45.772;12.852;2022-11-15T07:19:31;11.47;;;10.30;;
8488;SDS011;4281;45.772;12.852;2022-11-15T07:21:58;11.17;;;10.17;;
8488;SDS011;4281;45.772;12.852;2022-11-15T07:24:27;11.10;;;10.07;;
8488;SDS011;4281;45.772;12.852;2022-11-15T07:26:55;11.63;;;10.63;;
8488;SDS011;4281;45.772;12.852;2022-11-15T07:29:23;10.77;;;9.77;;
8488;SDS011;4281;45.772;12.852;2022-11-15T07:31:51;10.80;;;9.83;;
8488;SDS011;4281;45.772;12.852;2022-11-15T07:34:19;10.40;;;9.40;;
8488;SDS011;4281;45.772;12.852;2022-11-15T07:36:46;10.17;;;9.17;;
8488;SDS011;4281;45.772;12.852;2022-11-15T07:39:14;8.20;;;7.50;;
8488;SDS011;4281;45.772;12.852;2022-11-15T07:41:43;7.63;;;7.00;;
8488;SDS011;4281;45.772;12.852;2022-11-15T07:44:12;7.60;;;6.90;;
8488;SDS011;4281;45.772;12.852;2022-11-15T07:46:40;6.57;;;6.00;;
8488;SDS011;4281;45.772;12.852;2022-11-15T07:49:07;6.63;;;6.13;;
8488;SDS011;4281;45.772;12.852;2022-11-15T07:51:35;6.53;;;6.03;;
8488;SDS011;4281;45.772;12.852;2022-11-15T07:54:03;7.00;;;6.40;;
8488;SDS011;4281;45.772;12.852;2022-11-15T07:56:30;6.07;;;5.47;;
8488;SDS011;4281;45.772;12.852;2022-11-15T07:58:59;5.80;;;5.30;;
8488;SDS011;4281;45.772;12.852;2022-11-15T08:01:27;5.93;;;5.37;;
8488;SDS011;4281;45.772;12.852;2022-11-15T08:03:55;5.20;;;4.70;;
8488;SDS011;4281;45.772;12.852;2022-11-15T08:06:23;5.00;;;4.60;;
8488;SDS011;4281;45.772;12.852;2022-11-15T08:08:51;5.60;;;5.10;;
8488;SDS011;4281;45.772;12.852;2022-11-15T08:11:18;5.30;;;4.80;;
8488;SDS011;4281;45.772;12.852;2022-11-15T08:13:46;4.80;;;4.37;;
8488;SDS011;4281;45.772;12.852;2022-11-15T08:16:15;5.07;;;4.67;;
8488;SDS011;4281;45.772;12.852;2022-11-15T08:18:43;5.83;;;5.23;;
8488;SDS011;4281;45.772;12.852;2022-11-15T08:21:11;5.37;;;4.87;;
8488;SDS011;4281;45.772;12.852;2022-11-15T08:23:43;5.20;;;4.80;;
8488;SDS011;4281;45.772;12.852;2022-11-15T08:26:11;5.00;;;4.60;;
8488;SDS011;4281;45.772;12.852;2022-11-15T08:28:39;5.33;;;4.60;;
8488;SDS011;4281;45.772;12.852;2022-11-15T08:31:11;4.87;;;4.47;;
8488;SDS011;4281;45.772;12.852;2022-11-15T08:33:43;4.53;;;4.03;;
8488;SDS011;4281;45.772;12.852;2022-11-15T08:36:12;5.23;;;4.73;;
8488;SDS011;4281;45.772;12.852;2022-11-15T08:38:41;5.57;;;4.70;;
8488;SDS011;4281;45.772;12.852;2022-11-15T08:41:10;5.57;;;4.67;;
8488;SDS011;4281;45.772;12.852;2022-11-15T08:43:40;5.40;;;4.90;;
8488;SDS011;4281;45.772;12.852;2022-11-15T08:46:08;6.13;;;5.53;;
8488;SDS011;4281;45.772;12.852;2022-11-15T08:48:38;5.97;;;5.37;;
8488;SDS011;4281;45.772;12.852;2022-11-15T08:51:07;6.00;;;5.50;;
8488;SDS011;4281;45.772;12.852;2022-11-15T08:53:34;7.33;;;5.43;;
8488;SDS011;4281;45.772;12.852;2022-11-15T08:56:02;6.33;;;5.73;;
8488;SDS011;4281;45.772;12.852;2022-11-15T08:58:34;6.47;;;5.87;;
8488;SDS011;4281;45.772;12.852;2022-11-15T09:01:02;7.07;;;5.80;;
8488;SDS011;4281;45.772;12.852;2022-11-15T09:03:30;6.50;;;5.90;;
8488;SDS011;4281;45.772;12.852;2022-11-15T09:05:59;6.57;;;6.00;;
8488;SDS011;4281;45.772;12.852;2022-11-15T09:08:30;6.53;;;6.00;;
8488;SDS011;4281;45.772;12.852;2022-11-15T09:11:13;6.33;;;5.83;;
8488;SDS011;4281;45.772;12.852;2022-11-15T09:13:43;5.80;;;5.30;;
8488;SDS011;4281;45.772;12.852;2022-11-15T09:16:11;6.00;;;5.50;;
8488;SDS011;4281;45.772;12.852;2022-11-15T09:18:39;6.00;;;5.50;;
8488;SDS011;4281;45.772;12.852;2022-11-15T09:21:07;6.13;;;5.53;;
8488;SDS011;4281;45.772;12.852;2022-11-15T09:23:36;6.10;;;5.60;;
8488;SDS011;4281;45.772;12.852;2022-11-15T09:26:04;6.10;;;5.60;;
8488;SDS011;4281;45.772;12.852;2022-11-15T09:28:33;6.00;;;5.40;;
8488;SDS011;4281;45.772;12.852;2022-11-15T09:31:04;6.60;;;5.97;;
8488;SDS011;4281;45.772;12.852;2022-11-15T09:33:32;6.40;;;5.80;;
8488;SDS011;4281;45.772;12.852;2022-11-15T09:36:01;7.00;;;6.40;;
8488;SDS011;4281;45.772;12.852;2022-11-15T09:38:33;7.83;;;7.10;;
8488;SDS011;4281;45.772;12.852;2022-11-15T09:44:01;7.77;;;7.07;;
8488;SDS011;4281;45.772;12.852;2022-11-15T09:46:40;7.40;;;6.70;;
8488;SDS011;4281;45.772;12.852;2022-11-15T09:49:12;7.13;;;6.53;;
8488;SDS011;4281;45.772;12.852;2022-11-15T09:51:41;8.33;;;7.53;;
8488;SDS011;4281;45.772;12.852;2022-11-15T09:54:16;7.47;;;6.87;;
8488;SDS011;4281;45.772;12.852;2022-11-15T09:57:11;6.80;;;6.20;;
8488;SDS011;4281;45.772;12.852;2022-11-15T09:59:45;8.10;;;7.40;;
8488;SDS011;4281;45.772;12.852;2022-11-15T10:02:27;8.23;;;7.53;;
8488;SDS011;4281;45.772;12.852;2022-11-15T10:05:00;8.67;;;7.93;;
8488;SDS011;4281;45.772;12.852;2022-11-15T10:07:30;8.70;;;7.90;;
8488;SDS011;4281;45.772;12.852;2022-11-15T10:10:02;8.40;;;7.70;;
8488;SDS011;4281;45.772;12.852;2022-11-15T10:12:44;8.40;;;7.60;;
8488;SDS011;4281;45.772;12.852;2022-11-15T10:15:14;8.07;;;7.37;;
8488;SDS011;4281;45.772;12.852;2022-11-15T10:17:55;8.53;;;7.77;;
8488;SDS011;4281;45.772;12.852;2022-11-15T10:20:34;7.70;;;7.00;;
8488;SDS011;4281;45.772;12.852;2022-11-15T10:23:10;7.90;;;7.20;;
8488;SDS011;4281;45.772;12.852;2022-11-15T10:25:39;7.93;;;7.23;;
8488;SDS011;4281;45.772;12.852;2022-11-15T10:28:11;7.33;;;6.73;;
8488;SDS011;4281;45.772;12.852;2022-11-15T10:30:43;7.17;;;6.57;;
8488;SDS011;4281;45.772;12.852;2022-11-15T10:33:13;7.60;;;6.90;;
8488;SDS011;4281;45.772;12.852;2022-11-15T10:35:46;6.80;;;6.30;;
8488;SDS011;4281;45.772;12.852;2022-11-15T10:38:14;7.13;;;6.43;;
8488;SDS011;4281;45.772;12.852;2022-11-15T10:40:41;7.10;;;6.50;;
8488;SDS011;4281;45.772;12.852;2022-11-15T10:43:16;7.57;;;6.97;;
8488;SDS011;4281;45.772;12.852;2022-11-15T10:45:45;7.20;;;6.53;;
8488;SDS011;4281;45.772;12.852;2022-11-15T10:48:19;7.50;;;6.90;;
8488;SDS011;4281;45.772;12.852;2022-11-15T10:50:51;7.20;;;6.60;;
8488;SDS011;4281;45.772;12.852;2022-11-15T10:53:22;6.90;;;6.40;;
8488;SDS011;4281;45.772;12.852;2022-11-15T10:55:52;7.20;;;6.60;;
8488;SDS011;4281;45.772;12.852;2022-11-15T10:58:29;7.13;;;6.57;;
8488;SDS011;4281;45.772;12.852;2022-11-15T11:01:10;6.53;;;5.93;;
8488;SDS011;4281;45.772;12.852;2022-11-15T11:03:40;6.03;;;5.60;;
8488;SDS011;4281;45.772;12.852;2022-11-15T11:06:10;6.50;;;6.00;;
8488;SDS011;4281;45.772;12.852;2022-11-15T11:08:39;7.00;;;6.40;;
8488;SDS011;4281;45.772;12.852;2022-11-15T11:11:07;6.47;;;5.97;;
8488;SDS011;4281;45.772;12.852;2022-11-15T11:13:37;6.80;;;6.20;;
8488;SDS011;4281;45.772;12.852;2022-11-15T11:16:19;8.37;;;7.57;;
8488;SDS011;4281;45.772;12.852;2022-11-15T11:18:54;8.47;;;7.77;;
8488;SDS011;4281;45.772;12.852;2022-11-15T11:21:26;9.07;;;8.23;;
8488;SDS011;4281;45.772;12.852;2022-11-15T11:24:07;9.67;;;8.87;;
8488;SDS011;4281;45.772;12.852;2022-11-15T11:26:39;9.33;;;8.43;;
8488;SDS011;4281;45.772;12.852;2022-11-15T11:29:18;9.23;;;8.43;;
8488;SDS011;4281;45.772;12.852;2022-11-15T11:31:53;8.90;;;8.10;;
8488;SDS011;4281;45.772;12.852;2022-11-15T11:34:31;9.37;;;8.50;;
8488;SDS011;4281;45.772;12.852;2022-11-15T11:37:05;10.33;;;9.33;;
8488;SDS011;4281;45.772;12.852;2022-11-15T11:39:40;9.00;;;8.27;;
8488;SDS011;4281;45.772;12.852;2022-11-15T11:42:14;10.20;;;9.30;;
8488;SDS011;4281;45.772;12.852;2022-11-15T11:44:49;10.17;;;9.27;;
8488;SDS011;4281;45.772;12.852;2022-11-15T11:47:21;9.87;;;9.00;;
8488;SDS011;4281;45.772;12.852;2022-11-15T11:49:51;10.57;;;9.57;;
8488;SDS011;4281;45.772;12.852;2022-11-15T11:52:22;11.57;;;10.57;;
8488;SDS011;4281;45.772;12.852;2022-11-15T11:54:55;10.60;;;9.60;;
8488;SDS011;4281;45.772;12.852;2022-11-15T11:57:41;11.83;;;10.83;;
8488;SDS011;4281;45.772;12.852;2022-11-15T12:00:16;10.13;;;9.23;;
8488;SDS011;4281;45.772;12.852;2022-11-15T12:02:47;10.20;;;9.30;;
8488;SDS011;4281;45.772;12.852;2022-11-15T12:05:18;11.10;;;10.10;;
8488;SDS011;4281;45.772;12.852;2022-11-15T12:07:48;11.73;;;10.60;;
8488;SDS011;4281;45.772;12.852;2022-11-15T12:10:19;10.60;;;9.57;;
8488;SDS011;4281;45.772;12.852;2022-11-15T12:12:53;11.07;;;9.97;;
8488;SDS011;4281;45.772;12.852;2022-11-15T12:15:29;11.97;;;10.87;;
8488;SDS011;4281;45.772;12.852;2022-11-15T12:17:59;11.80;;;10.70;;
8488;SDS011;4281;45.772;12.852;2022-11-15T12:20:29;12.37;;;11.20;;
8488;SDS011;4281;45.772;12.852;2022-11-15T12:23:00;12.30;;;11.10;;
8488;SDS011;4281;45.772;12.852;2022-11-15T12:25:31;12.67;;;11.47;;
8488;SDS011;4281;45.772;12.852;2022-11-15T12:28:05;12.43;;;11.27;;
8488;SDS011;4281;45.772;12.852;2022-11-15T12:30:43;13.27;;;12.07;;
8488;SDS011;4281;45.772;12.852;2022-11-15T12:33:29;13.73;;;12.43;;
8488;SDS011;4281;45.772;12.852;2022-11-15T12:35:59;12.97;;;11.77;;
8488;SDS011;4281;45.772;12.852;2022-11-15T12:41:19;12.63;;;11.43;;
8488;SDS011;4281;45.772;12.852;2022-11-15T12:43:47;12.97;;;11.77;;
8488;SDS011;4281;45.772;12.852;2022-11-15T12:46:21;12.57;;;11.47;;
8488;SDS011;4281;45.772;12.852;2022-11-15T12:48:54;12.30;;;11.17;;
8488;SDS011;4281;45.772;12.852;2022-11-15T12:57:32;13.00;;;11.80;;
8488;SDS011;4281;45.772;12.852;2022-11-15T13:03:19;11.83;;;10.73;;
8488;SDS011;4281;45.772;12.852;2022-11-15T13:05:53;11.53;;;10.53;;
8488;SDS011;4281;45.772;12.852;2022-11-15T13:08:40;11.47;;;10.37;;
8488;SDS011;4281;45.772;12.852;2022-11-15T13:17:21;11.67;;;10.67;;
8488;SDS011;4281;45.772;12.852;2022-11-15T13:22:47;12.60;;;11.50;;
8488;SDS011;4281;45.772;12.852;2022-11-15T13:25:24;12.30;;;11.20;;
8488;SDS011;4281;45.772;12.852;2022-11-15T13:27:59;12.43;;;11.33;;
8488;SDS011;4281;45.772;12.852;2022-11-15T13:30:33;13.03;;;11.87;;
8488;SDS011;4281;45.772;12.852;2022-11-15T13:33:06;13.03;;;11.93;;
8488;SDS011;4281;45.772;12.852;2022-11-15T13:35:39;14.67;;;13.37;;
8488;SDS011;4281;45.772;12.852;2022-11-15T13:38:17;13.43;;;12.23;;
8488;SDS011;4281;45.772;12.852;2022-11-15T13:40:47;13.93;;;12.73;;
8488;SDS011;4281;45.772;12.852;2022-11-15T13:43:17;14.07;;;12.77;;
8488;SDS011;4281;45.772;12.852;2022-11-15T13:46:06;13.50;;;12.30;;
8488;SDS011;4281;45.772;12.852;2022-11-15T13:48:37;13.87;;;12.67;;
8488;SDS011;4281;45.772;12.852;2022-11-15T13:51:14;14.13;;;12.87;;
8488;SDS011;4281;45.772;12.852;2022-11-15T13:53:45;23.20;;;21.00;;
8488;SDS011;4281;45.772;12.852;2022-11-15T13:56:14;40.03;;;35.83;;
8488;SDS011;4281;45.772;12.852;2022-11-15T13:58:42;35.37;;;31.67;;
8488;SDS011;4281;45.772;12.852;2022-11-15T14:01:14;28.30;;;25.47;;
8488;SDS011;4281;45.772;12.852;2022-11-15T14:03:46;24.63;;;22.23;;
8488;SDS011;4281;45.772;12.852;2022-11-15T14:06:18;24.23;;;21.93;;
8488;SDS011;4281;45.772;12.852;2022-11-15T14:09:04;22.57;;;20.47;;
8488;SDS011;4281;45.772;12.852;2022-11-15T14:11:49;20.00;;;18.20;;
8488;SDS011;4281;45.772;12.852;2022-11-15T14:14:19;21.40;;;19.40;;
8488;SDS011;4281;45.772;12.852;2022-11-15T14:16:49;21.27;;;19.27;;
8488;SDS011;4281;45.772;12.852;2022-11-15T14:19:34;21.60;;;19.50;;
8488;SDS011;4281;45.772;12.852;2022-11-15T14:22:15;21.03;;;19.03;;
8488;SDS011;4281;45.772;12.852;2022-11-15T14:25:04;24.07;;;21.63;;
8488;SDS011;4281;45.772;12.852;2022-11-15T14:27:41;22.83;;;20.63;;
8488;SDS011;4281;45.772;12.852;2022-11-15T14:30:13;22.90;;;20.70;;
8488;SDS011;4281;45.772;12.852;2022-11-15T14:32:43;25.27;;;22.80;;
8488;SDS011;4281;45.772;12.852;2022-11-15T14:35:12;23.90;;;21.53;;
8488;SDS011;4281;45.772;12.852;2022-11-15T14:37:43;24.53;;;22.13;;
8488;SDS011;4281;45.772;12.852;2022-11-15T14:40:12;24.50;;;22.10;;
8488;SDS011;4281;45.772;12.852;2022-11-15T14:42:41;26.17;;;23.63;;
8488;SDS011;4281;45.772;12.852;2022-11-15T14:45:10;25.57;;;23.07;;
8488;SDS011;4281;45.772;12.852;2022-11-15T14:47:39;25.73;;;23.13;;
8488;SDS011;4281;45.772;12.852;2022-11-15T14:50:10;27.00;;;24.27;;
8488;SDS011;4281;45.772;12.852;2022-11-15T14:52:39;26.37;;;23.60;;
8488;SDS011;4281;45.772;12.852;2022-11-15T14:55:13;25.83;;;23.23;;
8488;SDS011;4281;45.772;12.852;2022-11-15T14:57:44;27.00;;;24.30;;
8488;SDS011;4281;45.772;12.852;2022-11-15T15:00:13;27.70;;;24.93;;
8488;SDS011;4281;45.772;12.852;2022-11-15T15:02:41;26.63;;;23.93;;
8488;SDS011;4281;45.772;12.852;2022-11-15T15:05:14;29.23;;;26.23;;
8488;SDS011;4281;45.772;12.852;2022-11-15T15:07:43;29.27;;;26.27;;
8488;SDS011;4281;45.772;12.852;2022-11-15T15:10:13;30.20;;;27.10;;
8488;SDS011;4281;45.772;12.852;2022-11-15T15:13:01;30.90;;;27.70;;
8488;SDS011;4281;45.772;12.852;2022-11-15T15:15:31;31.37;;;28.17;;
8488;SDS011;4281;45.772;12.852;2022-11-15T15:17:59;29.93;;;26.90;;
8488;SDS011;4281;45.772;12.852;2022-11-15T15:20:28;30.27;;;27.07;;
8488;SDS011;4281;45.772;12.852;2022-11-15T15:22:56;30.83;;;27.53;;
8488;SDS011;4281;45.772;12.852;2022-11-15T15:25:27;31.70;;;28.30;;
8488;SDS011;4281;45.772;12.852;2022-11-15T15:27:56;33.67;;;30.03;;
8488;SDS011;4281;45.772;12.852;2022-11-15T15:30:24;31.87;;;28.50;;
8488;SDS011;4281;45.772;12.852;2022-11-15T15:32:53;34.30;;;30.70;;
8488;SDS011;4281;45.772;12.852;2022-11-15T15:35:21;35.97;;;32.23;;
8488;SDS011;4281;45.772;12.852;2022-11-15T15:37:49;36.67;;;32.80;;